Time;durP1;ratioP1;P1;durP2;ratioP2;P2;SDS_P1;SDS_P2;PMS_P1;PMS_P2;Temp;Humidity;BMP_temperature;BMP_pressure;BME280_temperature;BME280_humidity;BME280_pressure;Samples;Min_cycle;Max_cycle;Signal;HPM_P1;HPM_P2
2021/06/13 00:02:14;;;;;;;7.67;3.00;;;;;;;16.20;52.43;102160.72;6121669;28;20239;-53
2021/06/13 00:05:34;;;;;;;10.77;4.17;;;;;;;16.25;52.04;102151.03;6118028;28;20422;-53
2021/06/13 00:08:55;;;;;;;9.73;3.50;;;;;;;16.15;52.55;102157.28;6122157;28;20236;-55
2021/06/13 00:12:15;;;;;;;6.60;3.43;;;;;;;15.86;52.88;102154.97;6116588;28;20237;-54
2021/06/13 00:15:36;;;;;;;13.27;4.60;;;;;;;15.70;53.55;102155.06;6119463;28;20243;-51
2021/06/13 00:18:58;;;;;;;10.03;3.93;;;;;;;15.84;52.61;102157.59;6117072;28;20321;-56
2021/06/13 00:22:18;;;;;;;11.03;5.07;;;;;;;15.74;53.31;102163.81;6121803;28;20231;-52
2021/06/13 00:25:39;;;;;;;11.13;4.17;;;;;;;15.76;53.20;102169.94;6122111;28;20238;-53
2021/06/13 00:29:00;;;;;;;9.90;4.57;;;;;;;15.82;52.44;102175.13;6124301;28;20239;-56
2021/06/13 00:32:20;;;;;;;19.13;12.67;;;;;;;15.87;52.45;102170.69;6120473;28;20231;-56
2021/06/13 00:35:42;;;;;;;12.13;7.07;;;;;;;15.94;51.84;102167.13;6115128;28;20571;-55
2021/06/13 00:39:03;;;;;;;15.23;9.77;;;;;;;15.91;51.81;102182.91;6119207;28;20621;-55
2021/06/13 00:42:23;;;;;;;9.23;5.50;;;;;;;15.71;52.38;102176.94;6110114;28;20242;-54
2021/06/13 00:45:44;;;;;;;9.70;6.30;;;;;;;15.89;51.72;102179.44;6119623;28;20223;-52
2021/06/13 00:49:05;;;;;;;11.23;4.70;;;;;;;15.74;51.68;102183.09;6129403;28;20231;-54
2021/06/13 00:52:27;;;;;;;8.97;3.03;;;;;;;15.58;52.23;102175.31;6110685;28;20242;-55
2021/06/13 00:55:52;;;;;;;7.10;3.27;;;;;;;15.64;51.76;102180.50;6118241;28;20239;-55
2021/06/13 00:59:13;;;;;;;9.37;3.87;;;;;;;15.75;51.68;102176.94;6128403;28;20246;-53
2021/06/13 01:02:34;;;;;;;7.20;3.30;;;;;;;15.75;51.36;102178.69;6118183;28;20578;-56
2021/06/13 01:05:55;;;;;;;8.80;4.00;;;;;;;15.86;50.56;102171.59;6124592;28;20326;-56
2021/06/13 01:09:21;;;;;;;6.43;3.53;;;;;;;16.00;50.24;102175.84;6135116;28;20562;-52
2021/06/13 01:12:47;;;;;;;8.17;3.87;;;;;;;15.93;50.46;102173.25;6130996;28;20224;-51
2021/06/13 01:16:16;;;;;;;10.30;3.40;;;;;;;15.92;50.73;102182.03;6125421;28;20223;-51
2021/06/13 01:19:45;;;;;;;7.37;2.83;;;;;;;15.87;50.17;102183.81;6118523;28;20226;-55
2021/06/13 01:23:25;;;;;;;4.97;3.00;;;;;;;15.83;50.46;102190.00;6116033;28;20258;-53
2021/06/13 01:27:07;;;;;;;8.83;4.00;;;;;;;16.05;49.92;102180.16;6121709;28;20598;-55
2021/06/13 01:30:31;;;;;;;11.57;3.70;;;;;;;15.98;49.96;102186.38;6127141;28;20259;-54
2021/06/13 01:33:54;;;;;;;6.03;2.97;;;;;;;15.79;50.17;102184.78;6124644;28;20246;-55
2021/06/13 01:37:21;;;;;;;10.00;3.43;;;;;;;15.86;49.86;102192.59;6120840;28;20520;-54
2021/06/13 01:40:43;;;;;;;7.70;3.13;;;;;;;15.82;50.12;102193.53;6118675;28;20235;-52
2021/06/13 01:44:06;;;;;;;6.00;3.10;;;;;;;15.71;50.67;102190.09;6126669;28;21052;-54
2021/06/13 01:47:30;;;;;;;7.33;3.97;;;;;;;15.61;50.97;102188.44;6123660;28;20227;-56
2021/06/13 01:50:55;;;;;;;6.97;3.10;;;;;;;15.35;51.98;102199.97;6117355;28;20231;-52
2021/06/13 01:54:19;;;;;;;6.40;3.33;;;;;;;15.53;51.89;102199.84;6122662;28;20239;-53
2021/06/13 01:57:43;;;;;;;7.63;3.50;;;;;;;15.51;52.80;102206.88;6129786;28;20238;-55
2021/06/13 02:01:23;;;;;;;12.30;4.80;;;;;;;15.51;53.11;102201.63;6113581;28;20235;-53
2021/06/13 02:04:46;;;;;;;4.87;3.47;;;;;;;15.47;53.19;102214.75;6119113;28;20617;-53
2021/06/13 02:08:11;;;;;;;9.80;3.83;;;;;;;15.19;53.96;102208.84;6116866;28;20560;-56
2021/06/13 02:11:35;;;;;;;7.80;4.60;;;;;;;15.52;53.18;102207.72;6116245;28;20310;-54
2021/06/13 02:14:56;;;;;;;12.27;3.67;;;;;;;15.17;54.33;102200.97;6123133;28;20269;-52
2021/06/13 02:18:27;;;;;;;8.53;4.23;;;;;;;15.27;54.26;102207.91;6133511;28;20873;-54
2021/06/13 02:21:55;;;;;;;7.20;4.37;;;;;;;15.53;53.89;102210.34;6119490;28;20238;-52
2021/06/13 02:25:20;;;;;;;7.97;3.50;;;;;;;15.64;53.37;102206.75;6123815;28;20569;-55
2021/06/13 02:28:46;;;;;;;6.40;3.57;;;;;;;15.65;53.45;102224.28;6137509;28;20244;-54
2021/06/13 02:32:10;;;;;;;11.83;5.23;;;;;;;15.70;53.44;102219.84;6126263;28;20236;-53
2021/06/13 02:35:32;;;;;;;10.10;4.27;;;;;;;15.74;53.49;102224.22;6117754;28;20228;-53
2021/06/13 02:38:55;;;;;;;7.87;4.13;;;;;;;15.85;52.76;102234.66;6120615;28;20624;-54
2021/06/13 02:42:16;;;;;;;11.10;4.17;;;;;;;15.88;52.81;102232.88;6116434;28;20235;-52
2021/06/13 02:45:42;;;;;;;12.30;6.10;;;;;;;15.81;52.72;102241.66;6129303;28;20263;-53
2021/06/13 02:49:04;;;;;;;7.20;2.83;;;;;;;15.72;52.14;102236.47;6127297;28;20236;-53
2021/06/13 02:52:39;;;;;;;8.83;4.13;;;;;;;15.76;51.70;102240.88;6106495;28;20236;-53
2021/06/13 02:56:12;;;;;;;8.43;4.30;;;;;;;15.94;50.90;102232.81;6113525;28;21008;-53
2021/06/13 02:59:37;;;;;;;9.80;3.87;;;;;;;15.76;51.61;102238.22;6114125;28;20235;-55
2021/06/13 03:03:00;;;;;;;6.20;3.63;;;;;;;15.86;51.49;102244.28;6120691;28;20231;-55
2021/06/13 03:06:21;;;;;;;10.27;3.67;;;;;;;15.93;51.14;102241.56;6135080;28;20239;-54
2021/06/13 03:09:45;;;;;;;6.83;3.60;;;;;;;15.88;51.47;102246.00;6116320;28;20326;-51
2021/06/13 03:13:12;;;;;;;9.07;4.27;;;;;;;15.65;51.72;102250.53;6135795;28;20262;-51
2021/06/13 03:16:37;;;;;;;8.03;3.80;;;;;;;15.90;51.61;102246.00;6123228;28;20240;-51
2021/06/13 03:19:58;;;;;;;10.80;3.90;;;;;;;16.10;50.87;102243.19;6118573;28;20606;-53
2021/06/13 03:23:21;;;;;;;7.27;3.93;;;;;;;16.22;50.72;102245.69;6114288;28;20239;-53
2021/06/13 03:26:43;;;;;;;7.70;3.13;;;;;;;15.70;52.83;102240.84;6131566;28;20256;-53
2021/06/13 03:30:06;;;;;;;10.60;4.40;;;;;;;15.70;52.95;102238.22;6117860;28;20259;-54
2021/06/13 03:33:35;;;;;;;7.93;3.47;;;;;;;15.79;52.83;102251.31;6127778;28;20235;-49
2021/06/13 03:36:58;;;;;;;8.07;3.33;;;;;;;15.94;52.69;102253.81;6126619;28;20228;-54
2021/06/13 03:40:20;;;;;;;10.60;4.77;;;;;;;15.90;53.11;102252.13;6128762;28;20242;-50
2021/06/13 03:43:42;;;;;;;9.23;4.60;;;;;;;16.22;52.51;102263.22;6119097;28;20235;-54
2021/06/13 03:47:05;;;;;;;7.53;3.90;;;;;;;16.00;53.06;102267.81;6125799;28;20426;-56
2021/06/13 03:50:26;;;;;;;9.13;3.43;;;;;;;16.10;52.79;102279.97;6116248;28;20594;-55
2021/06/13 03:53:48;;;;;;;8.03;3.20;;;;;;;16.02;53.19;102269.53;6122221;28;20557;-52
2021/06/13 03:57:10;;;;;;;7.70;3.40;;;;;;;16.03;53.29;102262.50;6120881;28;20235;-50
2021/06/13 04:00:34;;;;;;;11.23;3.90;;;;;;;16.13;53.07;102270.31;6122616;28;20240;-56
2021/06/13 04:03:57;;;;;;;5.63;3.80;;;;;;;16.15;53.09;102272.94;6117055;28;20559;-55
2021/06/13 04:07:19;;;;;;;11.00;5.57;;;;;;;15.86;53.77;102271.41;6117758;28;20581;-53
2021/06/13 04:10:42;;;;;;;8.07;3.13;;;;;;;16.05;53.16;102274.75;6115289;28;20231;-50
2021/06/13 04:14:05;;;;;;;11.00;4.93;;;;;;;15.41;54.95;102291.84;6116813;28;20250;-54
2021/06/13 04:17:27;;;;;;;12.30;3.73;;;;;;;16.03;53.55;102288.78;6119467;28;20236;-54
2021/06/13 04:20:51;;;;;;;6.03;2.73;;;;;;;15.45;55.08;102304.06;6115790;28;20235;-56
2021/06/13 04:24:14;;;;;;;10.20;3.77;;;;;;;15.66;54.71;102300.41;6115530;28;22688;-50
2021/06/13 04:27:37;;;;;;;8.70;3.83;;;;;;;15.84;54.37;102303.81;6116349;28;20658;-51
2021/06/13 04:31:11;;;;;;;8.60;3.37;;;;;;;16.03;53.76;102297.56;6122141;28;20317;-49
2021/06/13 04:34:32;;;;;;;6.77;3.77;;;;;;;16.00;53.81;102292.31;6113558;28;20616;-55
2021/06/13 04:37:54;;;;;;;12.87;4.30;;;;;;;16.00;53.91;102300.19;6112653;28;20602;-50
2021/06/13 04:41:15;;;;;;;8.17;3.80;;;;;;;15.81;54.48;102301.22;6113050;28;20665;-53
2021/06/13 04:44:38;;;;;;;8.70;4.30;;;;;;;15.88;54.44;102295.91;6110106;28;20601;-56
2021/06/13 04:48:00;;;;;;;8.87;3.20;;;;;;;15.71;54.96;102308.25;6110343;28;20235;-55
2021/06/13 04:51:21;;;;;;;8.70;4.03;;;;;;;15.67;55.03;102312.66;6121031;28;20271;-54
2021/06/13 04:55:10;;;;;;;9.00;3.97;;;;;;;15.86;54.86;102315.22;6117437;28;20633;-54
2021/06/13 04:58:31;;;;;;;11.33;4.83;;;;;;;15.68;55.57;102318.78;6103619;28;20235;-56
2021/06/13 05:01:52;;;;;;;7.87;4.17;;;;;;;15.59;55.86;102309.22;6121634;28;22047;-54
2021/06/13 05:05:15;;;;;;;9.17;4.33;;;;;;;15.34;56.84;102309.34;6113346;28;20227;-56
2021/06/13 05:08:36;;;;;;;10.17;4.03;;;;;;;15.94;54.91;102300.25;6125832;28;20235;-55
2021/06/13 05:11:59;;;;;;;8.80;4.07;;;;;;;16.02;54.87;102308.94;6123486;28;20231;-55
2021/06/13 05:15:22;;;;;;;8.97;4.27;;;;;;;16.13;54.53;102301.84;6120255;28;20248;-55
2021/06/13 05:18:43;;;;;;;12.60;4.83;;;;;;;16.29;53.73;102299.06;6126780;28;20696;-54
2021/06/13 05:22:06;;;;;;;9.70;4.83;;;;;;;16.32;53.84;102294.66;6121768;28;20314;-52
2021/06/13 05:25:32;;;;;;;10.67;4.47;;;;;;;15.70;55.27;102298.63;6124258;28;20810;-50
2021/06/13 05:28:54;;;;;;;9.77;4.13;;;;;;;16.13;54.09;102285.22;6118439;28;20317;-53
2021/06/13 05:32:15;;;;;;;9.83;4.17;;;;;;;16.22;53.16;102300.88;6132078;28;20226;-54
2021/06/13 05:35:38;;;;;;;7.53;3.57;;;;;;;16.00;53.90;102308.06;6120694;28;20681;-54
2021/06/13 05:38:59;;;;;;;8.57;4.63;;;;;;;16.12;53.44;102300.09;6118082;28;20231;-53
2021/06/13 05:42:20;;;;;;;8.07;4.67;;;;;;;16.33;53.04;102304.28;6121919;28;20266;-54
2021/06/13 05:45:42;;;;;;;10.47;4.53;;;;;;;16.26;52.94;102307.84;6125385;28;20468;-53
2021/06/13 05:49:03;;;;;;;9.87;4.83;;;;;;;16.40;52.73;102306.84;6124634;28;20626;-55
2021/06/13 05:52:24;;;;;;;8.90;4.40;;;;;;;16.46;52.52;102322.56;6111589;28;20239;-54
2021/06/13 05:55:45;;;;;;;11.23;4.97;;;;;;;16.24;53.12;102319.25;6123176;28;20255;-54
2021/06/13 05:59:07;;;;;;;10.50;4.17;;;;;;;16.22;52.22;102316.63;6123111;28;20239;-50
2021/06/13 06:02:29;;;;;;;10.13;4.40;;;;;;;16.28;52.21;102327.09;6122576;28;20235;-54
2021/06/13 06:05:51;;;;;;;11.07;5.10;;;;;;;16.20;52.46;102331.56;6123905;28;20243;-52
2021/06/13 06:09:12;;;;;;;9.10;4.87;;;;;;;16.28;51.55;102327.09;6121671;28;20243;-53
2021/06/13 06:12:34;;;;;;;10.20;4.67;;;;;;;16.11;51.60;102345.66;6122106;28;20463;-51
2021/06/13 06:15:55;;;;;;;8.30;4.43;;;;;;;16.55;50.45;102340.88;6126947;28;20728;-50
2021/06/13 06:19:18;;;;;;;10.30;5.30;;;;;;;16.26;50.97;102347.28;6128764;28;20262;-54
2021/06/13 06:22:39;;;;;;;7.77;3.57;;;;;;;16.44;50.64;102353.25;6126570;28;20732;-56
2021/06/13 06:25:59;;;;;;;9.73;3.83;;;;;;;16.81;49.16;102359.03;6127577;28;20235;-56
2021/06/13 06:29:20;;;;;;;8.87;3.83;;;;;;;16.55;49.34;102359.28;6126982;28;20236;-52
2021/06/13 06:32:42;;;;;;;6.13;3.63;;;;;;;16.40;49.51;102351.53;6130113;28;20234;-56
2021/06/13 06:36:06;;;;;;;9.30;3.80;;;;;;;16.19;50.18;102358.75;6125401;28;20222;-49
2021/06/13 06:39:27;;;;;;;8.20;4.80;;;;;;;16.54;48.98;102354.94;6129445;28;20247;-55
2021/06/13 06:42:48;;;;;;;7.57;4.10;;;;;;;16.81;49.21;102361.66;6132834;28;20230;-55
2021/06/13 06:46:09;;;;;;;9.27;4.37;;;;;;;16.83;48.67;102366.97;6129491;28;20240;-50
2021/06/13 06:49:31;;;;;;;11.00;3.57;;;;;;;17.03;48.21;102370.22;6125956;28;20234;-56
2021/06/13 06:52:53;;;;;;;8.37;3.57;;;;;;;17.23;47.74;102361.22;6124477;28;20234;-54
2021/06/13 06:56:14;;;;;;;7.67;4.00;;;;;;;17.18;48.12;102371.81;6132915;28;20239;-52
2021/06/13 06:59:35;;;;;;;12.18;4.63;;;;;;;17.28;48.13;102386.59;6123808;28;20228;-53
2021/06/13 07:02:57;;;;;;;9.17;4.40;;;;;;;17.03;48.56;102387.78;6125362;28;20227;-56
2021/06/13 07:06:18;;;;;;;6.77;3.90;;;;;;;16.73;49.74;102402.97;6124169;28;20255;-53
2021/06/13 07:09:40;;;;;;;9.30;4.80;;;;;;;16.67;49.71;102403.91;6127862;28;20235;-55
2021/06/13 07:13:01;;;;;;;8.23;4.33;;;;;;;16.81;49.40;102406.41;6124686;28;20606;-51
2021/06/13 07:16:23;;;;;;;7.93;3.80;;;;;;;16.86;49.74;102399.34;6126159;28;20266;-54
2021/06/13 07:19:44;;;;;;;9.43;4.00;;;;;;;16.62;49.66;102416.22;6132913;28;20243;-53
2021/06/13 07:23:04;;;;;;;8.33;4.17;;;;;;;17.03;48.80;102417.59;6126019;28;20538;-52
2021/06/13 07:26:27;;;;;;;11.23;4.47;;;;;;;17.13;48.65;102423.63;6131306;28;20230;-51
2021/06/13 07:29:48;;;;;;;8.20;3.83;;;;;;;17.54;47.81;102414.38;6125945;28;20235;-52
2021/06/13 07:33:09;;;;;;;4.43;3.00;;;;;;;17.43;47.98;102427.69;6120921;28;20741;-54
2021/06/13 07:36:30;;;;;;;6.50;3.23;;;;;;;17.67;49.61;102426.50;6126195;28;20231;-49
2021/06/13 07:39:51;;;;;;;10.70;4.67;;;;;;;18.35;50.07;102425.53;6128395;28;20937;-54
2021/06/13 07:43:13;;;;;;;7.67;3.80;;;;;;;18.26;48.73;102429.22;6126852;28;20235;-51
2021/06/13 07:46:36;;;;;;;9.63;4.73;;;;;;;17.79;47.66;102435.13;6127207;28;20239;-55
2021/06/13 07:49:57;;;;;;;10.77;4.03;;;;;;;18.18;47.99;102438.97;6133192;28;20224;-56
2021/06/13 07:53:17;;;;;;;8.90;3.63;;;;;;;17.88;47.34;102448.22;6128323;28;20231;-55
2021/06/13 07:56:38;;;;;;;10.53;4.43;;;;;;;18.37;45.94;102441.34;6131553;28;20292;-50
2021/06/13 08:00:00;;;;;;;10.20;3.60;;;;;;;18.41;45.91;102445.66;6131347;28;20550;-53
2021/06/13 08:03:21;;;;;;;8.23;3.95;;;;;;;18.71;44.89;102454.84;6124850;28;20246;-53
2021/06/13 08:06:42;;;;;;;9.68;4.00;;;;;;;19.18;45.39;102445.22;6121007;28;20262;-53
2021/06/13 08:10:04;;;;;;;12.27;4.75;;;;;;;19.01;46.21;102452.59;6124902;28;20235;-51
2021/06/13 08:13:25;;;;;;;25.00;10.63;;;;;;;18.90;44.38;102452.78;6121551;28;20606;-53
2021/06/13 08:16:48;;;;;;;84.50;77.25;;;;;;;19.22;44.59;102459.25;6124416;28;20235;-54
2021/06/13 08:20:10;;;;;;;675.25;614.90;;;;;;;19.55;46.20;102464.75;6124859;28;20852;-51
2021/06/13 08:23:31;;;;;;;340.92;314.60;;;;;;;20.02;43.46;102454.97;6128301;28;20243;-53
2021/06/13 08:26:53;;;;;;;38.20;34.95;;;;;;;20.19;41.80;102458.09;6133747;28;20239;-52
2021/06/13 08:30:16;;;;;;;10.43;7.53;;;;;;;20.36;40.57;102467.41;6122827;28;20243;-51
2021/06/13 08:33:38;;;;;;;11.50;6.22;;;;;;;19.88;41.22;102465.84;6129370;28;20235;-53
2021/06/13 08:36:59;;;;;;;6.75;4.63;;;;;;;19.04;44.31;102478.94;6130899;28;20239;-50
2021/06/13 08:40:20;;;;;;;11.13;4.97;;;;;;;19.24;43.91;102486.50;6128816;28;20254;-51
2021/06/13 08:43:41;;;;;;;10.80;4.53;;;;;;;19.61;43.99;102477.84;6134190;28;20231;-51
2021/06/13 08:47:03;;;;;;;6.13;3.97;;;;;;;19.75;43.40;102494.31;6124861;28;20239;-50
2021/06/13 08:50:26;;;;;;;15.65;5.50;;;;;;;19.22;44.73;102494.44;6128488;28;20571;-52
2021/06/13 08:53:47;;;;;;;7.82;3.90;;;;;;;18.52;46.70;102485.94;6130401;28;20232;-55
2021/06/13 08:57:09;;;;;;;11.82;5.45;;;;;;;18.44;47.56;102498.41;6134544;28;20235;-53
2021/06/13 09:00:32;;;;;;;8.18;4.90;;;;;;;18.68;46.74;102503.25;6118343;28;20605;-53
2021/06/13 09:03:53;;;;;;;10.88;4.97;;;;;;;18.18;48.56;102502.25;6125896;28;20227;-49
2021/06/13 09:07:23;;;;;;;7.25;4.78;;;;;;;18.15;48.67;102517.28;6127185;28;20239;-56
2021/06/13 09:10:47;;;;;;;11.93;5.47;;;;;;;18.06;48.47;102523.53;6133295;28;20235;-56
2021/06/13 09:14:11;;;;;;;5.88;4.47;;;;;;;18.58;46.49;102528.06;6137869;28;20517;-56
2021/06/13 09:17:32;;;;;;;13.60;5.28;;;;;;;18.89;45.35;102523.19;6129395;28;20236;-56
2021/06/13 09:20:53;;;;;;;11.15;4.53;;;;;;;18.61;46.66;102520.09;6134919;28;20234;-55
2021/06/13 09:24:24;;;;;;;9.50;5.68;;;;;;;18.76;46.36;102523.38;6142593;28;20273;-55
2021/06/13 09:28:06;;;;;;;13.93;5.53;;;;;;;18.84;46.00;102524.16;6130813;28;20230;-55
2021/06/13 09:31:29;;;;;;;9.55;5.47;;;;;;;18.84;45.47;102529.44;6122324;28;20248;-49
2021/06/13 09:35:21;;;;;;;8.50;4.75;;;;;;;19.07;44.97;102516.69;6125723;28;20238;-55
2021/06/13 09:38:44;;;;;;;10.52;5.13;;;;;;;19.22;44.48;102520.00;6130193;28;20248;-55
2021/06/13 09:42:09;;;;;;;9.43;6.00;;;;;;;19.28;44.11;102528.66;6126277;28;20590;-55
2021/06/13 09:45:29;;;;;;;13.43;6.07;;;;;;;18.41;45.74;102519.53;6131125;28;20251;-52
2021/06/13 09:48:53;;;;;;;7.85;4.72;;;;;;;19.12;44.76;102528.97;6128095;28;20243;-50
2021/06/13 09:52:13;;;;;;;13.27;5.47;;;;;;;19.58;43.78;102533.38;6132798;28;20263;-51
2021/06/13 09:55:34;;;;;;;6.55;4.35;;;;;;;19.93;43.04;102550.34;6134362;28;20323;-53
2021/06/13 09:59:03;;;;;;;9.68;4.22;;;;;;;20.17;41.64;102541.03;6137825;28;20235;-51
2021/06/13 10:02:30;;;;;;;6.97;4.38;;;;;;;19.37;42.42;102534.69;6135319;28;20526;-55
2021/06/13 10:05:55;;;;;;;12.10;5.07;;;;;;;19.52;42.56;102538.78;6126595;28;20244;-53
2021/06/13 10:09:17;;;;;;;6.78;4.22;;;;;;;19.50;42.56;102536.16;6136602;28;20239;-52
2021/06/13 10:12:53;;;;;;;7.97;5.45;;;;;;;19.70;42.48;102543.72;6132334;28;20330;-54
2021/06/13 10:16:40;;;;;;;10.20;4.55;;;;;;;19.78;42.39;102539.19;6132243;28;20258;-53
2021/06/13 10:20:01;;;;;;;7.43;4.25;;;;;;;19.15;43.21;102550.03;6123572;28;20614;-49
2021/06/13 10:23:22;;;;;;;7.72;4.70;;;;;;;18.58;44.17;102543.88;6130482;28;20775;-54
2021/06/13 10:26:46;;;;;;;10.50;3.97;;;;;;;19.20;43.66;102543.78;6133811;28;20239;-53
2021/06/13 10:30:09;;;;;;;8.10;5.03;;;;;;;19.37;42.78;102543.47;6131540;28;20536;-52
2021/06/13 10:33:32;;;;;;;10.57;4.75;;;;;;;20.11;42.01;102533.22;6142343;28;20235;-51
2021/06/13 10:36:54;;;;;;;7.15;3.78;;;;;;;20.63;42.57;102538.22;6132353;28;20633;-55
2021/06/13 10:40:16;;;;;;;7.63;4.22;;;;;;;20.03;41.95;102543.97;6133781;28;20235;-55
2021/06/13 10:43:37;;;;;;;8.02;5.30;;;;;;;20.42;42.46;102534.25;6132976;28;20231;-52
2021/06/13 10:47:09;;;;;;;6.13;4.35;;;;;;;20.46;41.00;102543.00;6128324;28;20355;-55
2021/06/13 10:50:35;;;;;;;7.45;4.38;;;;;;;20.38;41.31;102550.25;6131388;28;20231;-50
2021/06/13 10:54:30;;;;;;;10.27;5.28;;;;;;;19.53;42.13;102553.75;6130179;28;20228;-50
2021/06/13 10:57:53;;;;;;;9.40;4.70;;;;;;;20.56;40.78;102557.75;6130197;28;20230;-56
2021/06/13 11:01:24;;;;;;;6.82;4.28;;;;;;;20.40;41.11;102536.06;6127921;28;20538;-53
2021/06/13 11:04:49;;;;;;;8.70;4.82;;;;;;;20.59;40.94;102546.25;6136555;28;20536;-54
2021/06/13 11:08:11;;;;;;;6.25;3.95;;;;;;;21.16;39.46;102547.50;6125624;28;20231;-56
2021/06/13 11:11:39;;;;;;;6.18;4.88;;;;;;;21.27;39.99;102556.03;6125256;28;20337;-55
2021/06/13 11:15:00;;;;;;;16.85;6.50;;;;;;;21.20;39.26;102549.16;6130576;28;20235;-49
2021/06/13 11:18:29;;;;;;;10.00;5.22;;;;;;;21.43;38.31;102545.91;6129448;28;20936;-51
2021/06/13 11:21:50;;;;;;;6.43;4.18;;;;;;;20.89;39.58;102549.94;6132076;28;20342;-53
2021/06/13 11:25:19;;;;;;;9.10;5.25;;;;;;;20.94;39.86;102563.94;6128424;28;20231;-54
2021/06/13 11:28:50;;;;;;;9.55;5.38;;;;;;;20.94;39.69;102561.31;6129832;28;20517;-54
2021/06/13 11:32:11;;;;;;;5.60;4.40;;;;;;;21.15;38.95;102548.41;6138452;28;20644;-53
2021/06/13 11:35:35;;;;;;;6.68;4.45;;;;;;;21.30;39.84;102571.84;6135912;28;20255;-55
2021/06/13 11:39:27;;;;;;;6.18;4.25;;;;;;;21.93;38.18;102548.06;6131646;28;20625;-53
2021/06/13 11:43:08;;;;;;;7.10;4.25;;;;;;;21.26;38.49;102546.34;6126636;28;22246;-55
2021/06/13 11:46:34;;;;;;;8.40;4.78;;;;;;;21.38;38.99;102543.38;6127057;28;20235;-52
2021/06/13 11:49:55;;;;;;;7.90;4.72;;;;;;;21.96;37.78;102553.25;6121036;28;20661;-53
2021/06/13 11:53:15;;;;;;;6.80;4.15;;;;;;;21.47;38.34;102562.63;6131694;28;20248;-55
2021/06/13 11:56:43;;;;;;;8.55;4.65;;;;;;;21.09;38.67;102557.38;6119718;28;20626;-52
2021/06/13 12:00:13;;;;;;;5.65;3.70;;;;;;;21.57;38.69;102558.78;6129907;28;20230;-55
2021/06/13 12:03:39;;;;;;;6.30;4.22;;;;;;;21.76;38.10;102549.41;6139127;28;20226;-53
2021/06/13 12:07:02;;;;;;;6.10;3.63;;;;;;;21.77;37.68;102553.81;6132381;28;20235;-54
2021/06/13 12:10:29;;;;;;;6.63;4.63;;;;;;;21.75;38.13;102568.91;6114216;28;20266;-53
2021/06/13 12:13:50;;;;;;;5.25;3.22;;;;;;;22.32;36.84;102561.06;6128096;28;20606;-55
2021/06/13 12:17:13;;;;;;;6.15;3.65;;;;;;;22.94;35.21;102560.81;6136570;28;20818;-50
2021/06/13 12:20:35;;;;;;;8.32;4.43;;;;;;;22.73;36.26;102557.09;6130318;28;20234;-50
2021/06/13 12:24:04;;;;;;;11.60;4.57;;;;;;;22.28;37.05;102562.09;6129100;28;20239;-54
2021/06/13 12:27:25;;;;;;;6.97;4.22;;;;;;;22.77;36.29;102563.19;6117375;28;20356;-54
2021/06/13 12:30:46;;;;;;;8.02;4.55;;;;;;;22.64;36.45;102562.69;6123898;28;20553;-58
2021/06/13 12:34:18;;;;;;;5.32;3.55;;;;;;;23.24;35.86;102557.19;6128266;28;20239;-57
2021/06/13 12:37:42;;;;;;;5.40;3.63;;;;;;;22.14;36.40;102555.38;6129406;28;20600;-54
2021/06/13 12:41:04;;;;;;;6.70;4.78;;;;;;;22.56;36.96;102562.94;6128213;28;20238;-53
2021/06/13 12:44:25;;;;;;;6.28;4.82;;;;;;;22.87;35.87;102556.63;6117331;28;20242;-54
2021/06/13 12:47:47;;;;;;;8.82;4.28;;;;;;;21.98;36.81;102567.34;6117565;28;20239;-56
2021/06/13 12:51:09;;;;;;;6.47;3.65;;;;;;;22.27;37.62;102545.28;6123237;28;20235;-56
2021/06/13 12:54:31;;;;;;;8.68;3.63;;;;;;;21.99;37.69;102569.09;6123015;28;20243;-53
2021/06/13 12:57:53;;;;;;;5.95;4.32;;;;;;;21.93;38.13;102551.59;6124337;28;20228;-55
2021/06/13 13:01:15;;;;;;;5.15;3.08;;;;;;;21.40;38.76;102553.91;6121909;28;20232;-55
2021/06/13 13:04:43;;;;;;;7.32;3.67;;;;;;;22.77;36.50;102560.53;6126423;28;20326;-53
2021/06/13 13:08:15;;;;;;;6.13;3.50;;;;;;;22.29;36.61;102554.06;6117483;28;20559;-56
2021/06/13 13:11:41;;;;;;;5.80;3.95;;;;;;;23.06;36.31;102559.56;6121973;28;20621;-56
2021/06/13 13:15:11;;;;;;;5.95;3.85;;;;;;;23.81;35.26;102545.41;6119104;28;20247;-57
2021/06/13 13:18:40;;;;;;;10.18;4.40;;;;;;;22.52;37.30;102561.31;6114434;28;21485;-56
2021/06/13 13:22:16;;;;;;;5.05;3.25;;;;;;;22.86;36.88;102549.59;6117937;28;20235;-56
2021/06/13 13:25:39;;;;;;;4.03;3.13;;;;;;;23.20;35.96;102553.78;6117854;28;20259;-54
2021/06/13 13:29:01;;;;;;;5.78;3.67;;;;;;;24.49;32.72;102559.63;6117846;28;20436;-54
2021/06/13 13:32:24;;;;;;;7.20;3.65;;;;;;;23.28;35.78;102551.72;6123020;28;20349;-56
2021/06/13 13:35:45;;;;;;;6.55;3.97;;;;;;;23.36;35.50;102549.69;6119472;28;20223;-53
2021/06/13 13:39:21;;;;;;;9.18;3.75;;;;;;;24.94;32.71;102545.34;6112112;28;20613;-54
2021/06/13 13:42:42;;;;;;;6.00;3.72;;;;;;;23.98;34.42;102544.75;6124079;28;20239;-55
2021/06/13 13:46:05;;;;;;;8.48;4.65;;;;;;;25.72;31.53;102543.72;6126452;28;20671;-55
2021/06/13 13:49:26;;;;;;;15.60;3.55;;;;;;;24.32;32.48;102543.47;6118420;28;20235;-55
2021/06/13 13:52:48;;;;;;;4.32;3.28;;;;;;;23.78;33.46;102554.38;6119831;28;20247;-56
2021/06/13 13:56:10;;;;;;;6.00;3.63;;;;;;;24.87;32.62;102543.91;6115052;28;20740;-55
2021/06/13 13:59:34;;;;;;;7.43;3.55;;;;;;;24.17;33.60;102553.78;6124664;28;20533;-56
2021/06/13 14:03:00;;;;;;;9.32;3.50;;;;;;;25.42;32.57;102548.66;6119814;28;20239;-52
2021/06/13 14:06:22;;;;;;;7.45;3.97;;;;;;;23.94;33.93;102553.78;6130622;28;20280;-56
2021/06/13 14:09:43;;;;;;;7.13;4.30;;;;;;;22.59;36.42;102546.06;6129160;28;20305;-54
2021/06/13 14:13:04;;;;;;;6.90;4.30;;;;;;;22.02;37.66;102547.78;6124883;28;20227;-57
2021/06/13 14:16:25;;;;;;;10.15;3.72;;;;;;;22.08;37.38;102537.00;6130146;28;20243;-56
2021/06/13 14:19:47;;;;;;;7.47;3.95;;;;;;;22.04;37.39;102543.28;6133796;28;20239;-54
2021/06/13 14:23:09;;;;;;;5.38;4.10;;;;;;;22.33;37.91;102534.50;6135608;28;20243;-57
2021/06/13 14:26:30;;;;;;;8.77;3.97;;;;;;;23.53;35.81;102535.75;6134953;28;20227;-56
2021/06/13 14:29:51;;;;;;;8.15;4.53;;;;;;;23.33;35.55;102543.59;6129474;28;20242;-55
2021/06/13 14:33:14;;;;;;;5.47;3.13;;;;;;;23.40;35.44;102539.81;6130728;28;20235;-54
2021/06/13 14:36:36;;;;;;;8.93;4.30;;;;;;;24.07;33.93;102528.44;6139672;28;20499;-57
2021/06/13 14:39:56;;;;;;;10.70;4.28;;;;;;;23.30;34.54;102560.53;6135020;28;20239;-53
2021/06/13 14:43:18;;;;;;;6.75;4.32;;;;;;;22.57;35.99;102532.81;6135784;28;20321;-53
2021/06/13 14:46:39;;;;;;;6.18;2.90;;;;;;;22.70;35.98;102540.38;6136398;28;20235;-54
2021/06/13 14:50:00;;;;;;;9.75;3.75;;;;;;;22.94;35.44;102536.91;6136394;28;20234;-56
2021/06/13 14:53:22;;;;;;;9.05;3.42;;;;;;;22.43;36.05;102545.69;6135418;28;20233;-54
2021/06/13 14:56:43;;;;;;;7.07;4.05;;;;;;;22.73;35.25;102538.50;6137691;28;20234;-52
2021/06/13 15:00:05;;;;;;;6.88;4.20;;;;;;;23.15;34.50;102530.03;6131941;28;20228;-51
2021/06/13 15:03:26;;;;;;;5.18;3.17;;;;;;;23.74;32.57;102526.13;6134916;28;20262;-54
2021/06/13 15:06:47;;;;;;;4.78;3.58;;;;;;;23.57;33.02;102525.88;6133114;28;20235;-56
2021/06/13 15:10:10;;;;;;;5.28;3.00;;;;;;;22.94;34.17;102531.59;6126371;28;20669;-55
2021/06/13 15:13:31;;;;;;;7.28;3.97;;;;;;;22.14;35.37;102531.50;6118976;28;20585;-55
2021/06/13 15:16:52;;;;;;;8.45;5.18;;;;;;;22.60;34.38;102526.53;6134137;28;20267;-55
2021/06/13 15:20:14;;;;;;;5.72;3.55;;;;;;;23.06;34.05;102534.81;6125711;28;20548;-56
2021/06/13 15:23:35;;;;;;;5.97;3.30;;;;;;;23.24;33.42;102533.28;6123273;28;20320;-55
2021/06/13 15:31:41;;;;;;;7.03;2.75;;;;;;;22.97;33.64;102533.28;6111878;28;20251;-55
2021/06/13 15:35:11;;;;;;;4.97;3.03;;;;;;;23.17;33.55;102537.97;6110967;28;20223;-56
2021/06/13 15:38:42;;;;;;;3.85;2.70;;;;;;;23.39;33.15;102522.97;6113826;28;20383;-53
2021/06/13 15:42:12;;;;;;;6.80;2.92;;;;;;;23.44;32.13;102530.78;6131135;28;20529;-51
2021/06/13 15:45:39;;;;;;;3.38;2.67;;;;;;;23.46;33.11;102528.06;6127836;28;20240;-52
2021/06/13 15:49:24;;;;;;;4.38;2.65;;;;;;;23.76;32.72;102521.59;6126147;28;20975;-56